createdAt,value
2023-05-19T00:02:00.905Z,14.02
2023-05-19T00:07:02.210Z,14.11
2023-05-19T00:12:03.495Z,13.79
2023-05-19T00:17:04.739Z,13.60
2023-05-19T00:22:06.216Z,13.62
2023-05-19T00:27:07.459Z,13.45
2023-05-19T00:32:08.776Z,13.42
2023-05-19T00:37:09.994Z,13.31
2023-05-19T00:47:36.851Z,13.36
2023-05-19T00:58:03.842Z,13.02
2023-05-19T01:03:11.032Z,12.93
2023-05-19T01:08:12.544Z,12.99
2023-05-19T01:13:13.780Z,13.01
2023-05-19T01:23:40.616Z,13.14
2023-05-19T01:28:41.906Z,13.01
2023-05-19T01:33:43.150Z,12.88
2023-05-19T01:38:44.380Z,12.82
2023-05-19T01:43:45.606Z,12.54
2023-05-19T01:48:46.839Z,12.64
2023-05-19T01:53:48.075Z,12.48
2023-05-19T01:58:49.310Z,12.42
2023-05-19T02:03:50.755Z,12.23
2023-05-19T02:14:17.722Z,12.48
2023-05-19T02:19:19.005Z,12.44
2023-05-19T02:24:22.760Z,12.23
2023-05-19T02:29:24.038Z,11.92
2023-05-19T02:34:25.587Z,12.30
2023-05-19T02:39:26.951Z,12.50
2023-05-19T02:44:28.216Z,12.31
2023-05-19T02:49:35.871Z,12.42
2023-05-19T02:54:37.214Z,12.44
2023-05-19T02:59:38.469Z,12.13
2023-05-19T03:04:42.766Z,12.04
2023-05-19T03:09:44.005Z,12.10
2023-05-19T03:14:45.254Z,11.69
2023-05-19T03:19:46.532Z,11.80
2023-05-19T03:24:51.007Z,11.64
2023-05-19T03:29:53.782Z,11.40
2023-05-19T03:34:54.998Z,11.91
2023-05-19T03:39:56.212Z,11.54
2023-05-19T03:44:57.419Z,11.87
2023-05-19T03:49:58.667Z,11.43
2023-05-19T03:54:59.903Z,11.64
2023-05-19T04:00:01.143Z,11.80
2023-05-19T04:05:04.968Z,11.90
2023-05-19T04:10:06.299Z,11.77
2023-05-19T04:15:07.567Z,11.46
2023-05-19T04:20:08.785Z,11.75
2023-05-19T04:25:10.159Z,11.41
2023-05-19T04:30:12.042Z,11.75
2023-05-19T04:35:13.736Z,11.50
2023-05-19T04:40:15.656Z,11.80
2023-05-19T04:45:16.921Z,11.39
2023-05-19T04:50:18.275Z,11.28
2023-05-19T04:55:19.651Z,11.67
2023-05-19T05:00:21.286Z,11.32
2023-05-19T05:05:22.658Z,11.64
2023-05-19T05:10:23.909Z,11.57
2023-05-19T05:15:28.593Z,12.14
2023-05-19T05:20:29.923Z,12.34
2023-05-19T05:25:31.487Z,12.30
2023-05-19T05:30:32.889Z,12.55
2023-05-19T05:35:34.301Z,12.63
2023-05-19T05:40:35.780Z,12.92
2023-05-19T05:45:37.069Z,12.92
2023-05-19T05:50:38.366Z,13.27
2023-05-19T05:55:39.628Z,13.11
2023-05-19T06:00:43.474Z,13.20
2023-05-19T06:05:44.842Z,13.22
2023-05-19T06:10:47.493Z,13.35
2023-05-19T06:15:48.887Z,13.48
2023-05-19T06:20:50.260Z,13.49
2023-05-19T06:25:51.551Z,13.63
2023-05-19T06:30:52.794Z,13.52
2023-05-19T06:35:54.141Z,13.46
2023-05-19T06:40:55.438Z,13.82
2023-05-19T06:45:56.757Z,13.91
2023-05-19T06:50:58.294Z,14.10
2023-05-19T06:56:00.372Z,14.09
2023-05-19T07:01:01.884Z,14.10
2023-05-19T07:06:04.032Z,14.07
2023-05-19T07:11:05.928Z,14.38
2023-05-19T07:16:07.163Z,13.99
2023-05-19T07:21:08.528Z,14.06
2023-05-19T07:26:09.746Z,14.51
2023-05-19T07:31:11.003Z,15.09
2023-05-19T07:36:12.331Z,15.03
2023-05-19T07:41:13.553Z,15.52
2023-05-19T07:46:14.860Z,15.37
2023-05-19T07:51:16.291Z,15.61
2023-05-19T07:56:17.575Z,15.75
2023-05-19T08:01:18.837Z,15.87
2023-05-19T08:06:20.046Z,15.73
2023-05-19T08:11:21.602Z,15.93
2023-05-19T08:16:23.093Z,16.23
2023-05-19T08:21:24.417Z,15.86
2023-05-19T08:26:26.451Z,16.37
2023-05-19T08:31:27.715Z,16.38
2023-05-19T08:36:29.404Z,16.41
2023-05-19T08:41:30.603Z,15.93
2023-05-19T08:46:31.933Z,16.33
2023-05-19T08:51:33.225Z,16.26
2023-05-19T08:56:34.476Z,16.29
2023-05-19T09:06:40.969Z,16.85
2023-05-19T09:11:42.476Z,17.00
2023-05-19T09:16:43.788Z,16.87
2023-05-19T09:21:45.731Z,17.05
2023-05-19T09:26:47.053Z,17.35
2023-05-19T09:31:49.215Z,17.57
2023-05-19T09:36:50.707Z,17.61
2023-05-19T09:41:53.561Z,17.22
2023-05-19T09:46:54.825Z,17.96
2023-05-19T09:51:56.609Z,18.55
2023-05-19T09:56:58.812Z,18.26
2023-05-19T10:02:00.135Z,18.35
2023-05-19T10:07:01.437Z,18.34
2023-05-19T10:12:02.842Z,18.27
2023-05-19T10:17:04.129Z,18.39
2023-05-19T10:22:05.512Z,18.25
2023-05-19T10:27:08.744Z,17.94
2023-05-19T10:32:09.967Z,18.12
2023-05-19T10:37:12.026Z,18.47
2023-05-19T10:42:13.376Z,18.71
2023-05-19T10:47:14.767Z,19.08
2023-05-19T10:52:16.144Z,18.93
2023-05-19T10:57:17.427Z,18.63
2023-05-19T11:02:18.683Z,18.67
2023-05-19T11:07:24.659Z,18.24
2023-05-19T11:12:26.034Z,19.02
2023-05-19T11:17:27.430Z,19.41
2023-05-19T11:22:28.668Z,20.02
2023-05-19T11:27:33.252Z,20.27
2023-05-19T11:32:34.813Z,20.41
2023-05-19T11:37:36.744Z,20.02
2023-05-19T11:42:38.085Z,19.42
2023-05-19T11:47:59.682Z,20.08
2023-05-19T11:53:01.163Z,20.38
2023-05-19T11:58:04.636Z,20.35
2023-05-19T12:03:07.217Z,20.42
2023-05-19T12:08:08.785Z,20.23
2023-05-19T12:13:10.496Z,20.16
2023-05-19T12:18:12.191Z,20.16
2023-05-19T12:23:13.470Z,20.66
2023-05-19T12:33:16.554Z,21.82
2023-05-19T12:38:17.908Z,22.29
2023-05-19T12:43:19.148Z,22.38
2023-05-19T12:48:22.552Z,22.09
2023-05-19T12:53:23.847Z,22.94
2023-05-19T12:58:25.194Z,22.52
2023-05-19T13:03:26.528Z,23.15
2023-05-19T13:08:27.923Z,23.95
2023-05-19T13:13:29.186Z,23.66
2023-05-19T13:18:32.409Z,22.94
2023-05-19T13:23:34.750Z,23.28
2023-05-19T13:28:36.026Z,23.82
2023-05-19T13:33:37.248Z,23.01
2023-05-19T13:38:38.558Z,22.49
2023-05-19T13:43:39.827Z,22.73
2023-05-19T13:48:41.340Z,23.28
2023-05-19T13:53:43.082Z,22.89
2023-05-19T13:58:44.326Z,22.80
2023-05-19T14:03:45.680Z,22.14
2023-05-19T14:08:46.911Z,21.80
2023-05-19T14:13:49.090Z,21.87
2023-05-19T14:18:51.283Z,22.27
2023-05-19T14:23:52.531Z,23.06
2023-05-19T14:28:53.776Z,23.03
2023-05-19T14:33:54.982Z,23.02
2023-05-19T14:38:56.733Z,22.59
2023-05-19T14:43:57.979Z,22.60
2023-05-19T14:48:59.303Z,22.52
2023-05-19T14:54:02.107Z,22.36
2023-05-19T14:59:04.470Z,22.25
2023-05-19T15:04:05.824Z,22.68
2023-05-19T15:09:07.119Z,22.70
2023-05-19T15:14:08.412Z,22.78
2023-05-19T15:19:09.688Z,21.87
2023-05-19T15:24:11.344Z,21.80
2023-05-19T15:29:12.635Z,21.63
2023-05-19T15:34:13.891Z,21.39
2023-05-19T15:39:15.347Z,21.35
2023-05-19T15:44:16.588Z,21.34
2023-05-19T15:49:21.049Z,21.67
2023-05-19T15:54:22.374Z,21.71
2023-05-19T15:59:23.707Z,21.17
2023-05-19T16:04:24.945Z,21.07
2023-05-19T16:09:26.256Z,20.84
2023-05-19T16:14:30.960Z,21.20
2023-05-19T16:19:32.225Z,21.78
2023-05-19T16:29:34.685Z,21.48
2023-05-19T16:34:35.910Z,21.97
2023-05-19T16:39:37.295Z,22.00
2023-05-19T16:44:38.594Z,21.59
2023-05-19T16:49:40.864Z,22.10
2023-05-19T16:54:42.167Z,22.20
2023-05-19T16:59:44.535Z,22.10
2023-05-19T17:04:45.802Z,21.60
2023-05-19T17:09:48.038Z,21.17
2023-05-19T17:14:50.367Z,21.07
2023-05-19T17:19:51.956Z,20.61
2023-05-19T17:24:53.155Z,20.33
2023-05-19T17:29:54.427Z,20.32
2023-05-19T17:34:55.657Z,20.04
2023-05-19T17:39:56.881Z,20.11
2023-05-19T17:44:58.242Z,19.79
2023-05-19T17:49:59.493Z,19.51
2023-05-19T17:55:00.858Z,19.18
2023-05-19T18:00:03.536Z,19.21
2023-05-19T18:05:04.829Z,19.03
2023-05-19T18:10:06.131Z,18.86
2023-05-19T18:15:07.408Z,18.61
2023-05-19T18:20:10.530Z,18.37
2023-05-19T18:25:11.825Z,18.40
2023-05-19T18:30:13.082Z,18.32
2023-05-19T18:35:14.584Z,18.13
2023-05-19T18:40:17.774Z,17.87
2023-05-19T18:45:19.038Z,18.00
2023-05-19T18:50:20.591Z,18.01
2023-05-19T18:55:21.937Z,18.33
2023-05-19T19:00:23.766Z,17.95
2023-05-19T19:05:25.092Z,17.90
2023-05-19T19:10:27.160Z,17.75
2023-05-19T19:15:29.303Z,17.67
2023-05-19T19:20:30.643Z,17.85
2023-05-19T19:25:31.917Z,17.72
2023-05-19T19:30:33.429Z,17.56
2023-05-19T19:35:34.995Z,17.57
2023-05-19T19:40:36.405Z,17.34
2023-05-19T19:45:39.553Z,17.26
2023-05-19T19:50:40.922Z,17.21
2023-05-19T19:55:42.976Z,17.28
2023-05-19T20:00:44.436Z,17.39
2023-05-19T20:05:45.766Z,17.51
2023-05-19T20:10:48.039Z,17.47
2023-05-19T20:15:49.458Z,17.81
2023-05-19T20:20:50.817Z,17.27
2023-05-19T20:26:09.907Z,17.11
2023-05-19T20:31:11.956Z,17.29
2023-05-19T20:36:13.189Z,17.21
2023-05-19T20:41:14.418Z,17.05
2023-05-19T20:46:15.703Z,17.46
2023-05-19T20:51:16.975Z,17.26
2023-05-19T20:56:18.231Z,17.37
2023-05-19T21:01:19.854Z,17.28
2023-05-19T21:06:21.125Z,17.04
2023-05-19T21:11:22.386Z,17.12
2023-05-19T21:16:23.652Z,17.02
2023-05-19T21:21:24.966Z,16.80
2023-05-19T21:26:29.330Z,16.86
2023-05-19T21:31:30.661Z,16.70
2023-05-19T21:36:32.043Z,16.65
2023-05-19T21:41:33.457Z,16.60
2023-05-19T21:46:34.805Z,16.48
2023-05-19T21:51:36.724Z,16.27
2023-05-19T21:56:38.186Z,16.39
2023-05-19T22:01:39.681Z,16.36
2023-05-19T22:06:41.002Z,16.16
2023-05-19T22:11:42.286Z,16.23
2023-05-19T22:16:43.801Z,16.26
2023-05-19T22:21:45.288Z,16.23
2023-05-19T22:26:47.282Z,16.28
2023-05-19T22:31:48.546Z,16.35
2023-05-19T22:36:49.929Z,16.34
2023-05-19T22:41:51.183Z,16.28
2023-05-19T22:46:52.422Z,16.15
2023-05-19T22:51:53.663Z,16.17
2023-05-19T22:56:54.957Z,16.21
2023-05-19T23:01:56.223Z,16.03
2023-05-19T23:06:57.514Z,16.25
2023-05-19T23:11:58.832Z,16.14
2023-05-19T23:17:00.253Z,16.25
2023-05-19T23:22:01.596Z,16.13
2023-05-19T23:27:02.885Z,16.01
2023-05-19T23:32:04.139Z,16.11
2023-05-19T23:37:05.389Z,15.94
2023-05-19T23:42:06.712Z,16.09
2023-05-19T23:47:08.071Z,15.86
2023-05-19T23:52:09.461Z,15.87
2023-05-19T23:57:10.739Z,15.48
